sensor_id;sensor_type;location;lat;lon;timestamp;P1;durP1;ratioP1;P2;durP2;ratioP2
10823;SDS011;39116;59.332;18.034;2022-12-10T00:02:25;15.43;;;9.63;;
10823;SDS011;39116;59.332;18.034;2022-12-10T00:04:52;12.77;;;9.00;;
10823;SDS011;39116;59.332;18.034;2022-12-10T00:07:18;14.23;;;9.63;;
10823;SDS011;39116;59.332;18.034;2022-12-10T00:09:45;14.73;;;9.27;;
10823;SDS011;39116;59.332;18.034;2022-12-10T00:12:13;13.33;;;9.53;;
10823;SDS011;39116;59.332;18.034;2022-12-10T00:14:39;16.87;;;10.70;;
10823;SDS011;39116;59.332;18.034;2022-12-10T00:17:06;13.67;;;9.60;;
10823;SDS011;39116;59.332;18.034;2022-12-10T00:19:32;14.57;;;11.00;;
10823;SDS011;39116;59.332;18.034;2022-12-10T00:21:59;16.87;;;10.43;;
10823;SDS011;39116;59.332;18.034;2022-12-10T00:24:25;16.33;;;10.50;;
10823;SDS011;39116;59.332;18.034;2022-12-10T00:26:52;13.73;;;9.47;;
10823;SDS011;39116;59.332;18.034;2022-12-10T00:29:19;13.17;;;10.00;;
10823;SDS011;39116;59.332;18.034;2022-12-10T00:31:46;12.73;;;9.50;;
10823;SDS011;39116;59.332;18.034;2022-12-10T00:34:13;15.00;;;10.53;;
10823;SDS011;39116;59.332;18.034;2022-12-10T00:36:40;12.30;;;9.70;;
10823;SDS011;39116;59.332;18.034;2022-12-10T00:39:08;16.47;;;10.10;;
10823;SDS011;39116;59.332;18.034;2022-12-10T00:41:35;14.80;;;10.23;;
10823;SDS011;39116;59.332;18.034;2022-12-10T00:44:02;12.43;;;8.50;;
10823;SDS011;39116;59.332;18.034;2022-12-10T00:46:30;12.10;;;8.50;;
10823;SDS011;39116;59.332;18.034;2022-12-10T00:48:57;11.87;;;7.97;;
10823;SDS011;39116;59.332;18.034;2022-12-10T00:51:24;13.17;;;8.63;;
10823;SDS011;39116;59.332;18.034;2022-12-10T00:53:52;12.40;;;8.70;;
10823;SDS011;39116;59.332;18.034;2022-12-10T00:56:19;13.03;;;8.33;;
10823;SDS011;39116;59.332;18.034;2022-12-10T00:58:47;14.07;;;9.03;;
10823;SDS011;39116;59.332;18.034;2022-12-10T01:01:15;18.23;;;8.90;;
10823;SDS011;39116;59.332;18.034;2022-12-10T01:03:43;13.23;;;9.03;;
10823;SDS011;39116;59.332;18.034;2022-12-10T01:06:11;13.03;;;8.83;;
10823;SDS011;39116;59.332;18.034;2022-12-10T01:08:38;15.17;;;8.30;;
10823;SDS011;39116;59.332;18.034;2022-12-10T01:11:05;16.67;;;9.97;;
10823;SDS011;39116;59.332;18.034;2022-12-10T01:13:31;12.83;;;8.87;;
10823;SDS011;39116;59.332;18.034;2022-12-10T01:15:59;11.97;;;8.13;;
10823;SDS011;39116;59.332;18.034;2022-12-10T01:18:26;14.97;;;9.33;;
10823;SDS011;39116;59.332;18.034;2022-12-10T01:20:53;14.07;;;9.33;;
10823;SDS011;39116;59.332;18.034;2022-12-10T01:23:20;13.07;;;9.33;;
10823;SDS011;39116;59.332;18.034;2022-12-10T01:25:46;14.80;;;9.60;;
10823;SDS011;39116;59.332;18.034;2022-12-10T01:28:13;15.23;;;8.70;;
10823;SDS011;39116;59.332;18.034;2022-12-10T01:30:39;13.90;;;9.57;;
10823;SDS011;39116;59.332;18.034;2022-12-10T01:33:06;10.83;;;7.23;;
10823;SDS011;39116;59.332;18.034;2022-12-10T01:35:35;14.50;;;10.40;;
10823;SDS011;39116;59.332;18.034;2022-12-10T01:38:02;14.40;;;9.37;;
10823;SDS011;39116;59.332;18.034;2022-12-10T01:40:29;14.77;;;8.43;;
10823;SDS011;39116;59.332;18.034;2022-12-10T01:42:56;14.70;;;9.20;;
10823;SDS011;39116;59.332;18.034;2022-12-10T01:45:22;12.53;;;8.60;;
10823;SDS011;39116;59.332;18.034;2022-12-10T01:47:49;12.57;;;8.67;;
10823;SDS011;39116;59.332;18.034;2022-12-10T01:50:15;11.37;;;7.73;;
10823;SDS011;39116;59.332;18.034;2022-12-10T01:52:42;11.13;;;8.30;;
10823;SDS011;39116;59.332;18.034;2022-12-10T01:57:51;12.77;;;8.40;;
10823;SDS011;39116;59.332;18.034;2022-12-10T02:00:18;11.60;;;7.73;;
10823;SDS011;39116;59.332;18.034;2022-12-10T02:02:45;11.67;;;6.90;;
10823;SDS011;39116;59.332;18.034;2022-12-10T02:05:16;9.50;;;6.83;;
10823;SDS011;39116;59.332;18.034;2022-12-10T02:07:48;9.23;;;7.43;;
10823;SDS011;39116;59.332;18.034;2022-12-10T02:10:24;8.57;;;6.63;;
10823;SDS011;39116;59.332;18.034;2022-12-10T02:12:54;9.50;;;6.27;;
10823;SDS011;39116;59.332;18.034;2022-12-10T02:15:24;7.57;;;5.80;;
10823;SDS011;39116;59.332;18.034;2022-12-10T02:17:52;9.50;;;6.57;;
10823;SDS011;39116;59.332;18.034;2022-12-10T02:20:20;9.40;;;6.83;;
10823;SDS011;39116;59.332;18.034;2022-12-10T02:22:49;6.83;;;5.80;;
10823;SDS011;39116;59.332;18.034;2022-12-10T02:25:17;7.23;;;5.57;;
10823;SDS011;39116;59.332;18.034;2022-12-10T02:27:47;8.43;;;6.60;;
10823;SDS011;39116;59.332;18.034;2022-12-10T02:30:16;7.27;;;5.93;;
10823;SDS011;39116;59.332;18.034;2022-12-10T02:32:43;7.93;;;6.13;;
10823;SDS011;39116;59.332;18.034;2022-12-10T02:35:12;9.20;;;6.70;;
10823;SDS011;39116;59.332;18.034;2022-12-10T02:37:40;9.90;;;7.27;;
10823;SDS011;39116;59.332;18.034;2022-12-10T02:40:10;8.77;;;6.43;;
10823;SDS011;39116;59.332;18.034;2022-12-10T02:42:38;7.80;;;5.80;;
10823;SDS011;39116;59.332;18.034;2022-12-10T02:45:05;12.20;;;7.30;;
10823;SDS011;39116;59.332;18.034;2022-12-10T02:47:34;9.50;;;6.53;;
10823;SDS011;39116;59.332;18.034;2022-12-10T02:50:01;7.93;;;6.00;;
10823;SDS011;39116;59.332;18.034;2022-12-10T02:52:28;8.07;;;6.10;;
10823;SDS011;39116;59.332;18.034;2022-12-10T02:54:54;9.43;;;6.43;;
10823;SDS011;39116;59.332;18.034;2022-12-10T02:57:27;9.00;;;6.47;;
10823;SDS011;39116;59.332;18.034;2022-12-10T03:00:01;9.47;;;6.73;;
10823;SDS011;39116;59.332;18.034;2022-12-10T03:02:31;9.00;;;6.70;;
10823;SDS011;39116;59.332;18.034;2022-12-10T03:05:02;11.77;;;7.33;;
10823;SDS011;39116;59.332;18.034;2022-12-10T03:07:32;9.90;;;7.03;;
10823;SDS011;39116;59.332;18.034;2022-12-10T03:10:02;10.00;;;7.47;;
10823;SDS011;39116;59.332;18.034;2022-12-10T03:12:29;9.03;;;6.70;;
10823;SDS011;39116;59.332;18.034;2022-12-10T03:14:58;10.30;;;7.63;;
10823;SDS011;39116;59.332;18.034;2022-12-10T03:17:25;9.50;;;7.13;;
10823;SDS011;39116;59.332;18.034;2022-12-10T03:19:52;10.33;;;7.50;;
10823;SDS011;39116;59.332;18.034;2022-12-10T03:22:21;10.00;;;7.60;;
10823;SDS011;39116;59.332;18.034;2022-12-10T03:24:47;11.00;;;7.77;;
10823;SDS011;39116;59.332;18.034;2022-12-10T03:27:14;9.57;;;7.40;;
10823;SDS011;39116;59.332;18.034;2022-12-10T03:29:43;9.70;;;6.90;;
10823;SDS011;39116;59.332;18.034;2022-12-10T03:32:11;9.40;;;6.30;;
10823;SDS011;39116;59.332;18.034;2022-12-10T03:34:38;12.07;;;6.87;;
10823;SDS011;39116;59.332;18.034;2022-12-10T03:37:04;8.40;;;6.67;;
10823;SDS011;39116;59.332;18.034;2022-12-10T03:39:32;7.57;;;6.30;;
10823;SDS011;39116;59.332;18.034;2022-12-10T03:42:00;7.13;;;5.40;;
10823;SDS011;39116;59.332;18.034;2022-12-10T03:44:26;6.30;;;5.27;;
10823;SDS011;39116;59.332;18.034;2022-12-10T03:46:53;6.73;;;6.00;;
10823;SDS011;39116;59.332;18.034;2022-12-10T03:49:20;7.77;;;6.00;;
10823;SDS011;39116;59.332;18.034;2022-12-10T03:51:46;7.00;;;5.40;;
10823;SDS011;39116;59.332;18.034;2022-12-10T03:54:12;6.77;;;5.37;;
10823;SDS011;39116;59.332;18.034;2022-12-10T03:56:40;6.90;;;5.60;;
10823;SDS011;39116;59.332;18.034;2022-12-10T03:59:07;5.77;;;4.97;;
10823;SDS011;39116;59.332;18.034;2022-12-10T04:01:33;5.37;;;4.47;;
10823;SDS011;39116;59.332;18.034;2022-12-10T04:04:00;5.20;;;4.13;;
10823;SDS011;39116;59.332;18.034;2022-12-10T04:06:26;4.97;;;3.93;;
10823;SDS011;39116;59.332;18.034;2022-12-10T04:08:53;5.00;;;4.07;;
10823;SDS011;39116;59.332;18.034;2022-12-10T04:11:19;5.40;;;4.43;;
10823;SDS011;39116;59.332;18.034;2022-12-10T04:13:47;4.70;;;4.20;;
10823;SDS011;39116;59.332;18.034;2022-12-10T04:16:33;5.80;;;3.50;;
10823;SDS011;39116;59.332;18.034;2022-12-10T04:19:00;4.80;;;4.33;;
10823;SDS011;39116;59.332;18.034;2022-12-10T04:21:27;4.60;;;3.73;;
10823;SDS011;39116;59.332;18.034;2022-12-10T04:24:18;5.70;;;4.07;;
10823;SDS011;39116;59.332;18.034;2022-12-10T04:27:03;4.57;;;3.67;;
10823;SDS011;39116;59.332;18.034;2022-12-10T04:29:31;5.10;;;3.93;;
10823;SDS011;39116;59.332;18.034;2022-12-10T04:31:58;4.47;;;4.00;;
10823;SDS011;39116;59.332;18.034;2022-12-10T04:34:24;5.40;;;4.43;;
10823;SDS011;39116;59.332;18.034;2022-12-10T04:36:51;5.10;;;4.40;;
10823;SDS011;39116;59.332;18.034;2022-12-10T04:39:17;5.73;;;4.27;;
10823;SDS011;39116;59.332;18.034;2022-12-10T04:41:44;5.40;;;4.70;;
10823;SDS011;39116;59.332;18.034;2022-12-10T04:44:11;5.07;;;4.57;;
10823;SDS011;39116;59.332;18.034;2022-12-10T04:46:39;5.47;;;4.70;;
10823;SDS011;39116;59.332;18.034;2022-12-10T04:49:06;6.10;;;5.03;;
10823;SDS011;39116;59.332;18.034;2022-12-10T04:51:32;5.13;;;4.17;;
10823;SDS011;39116;59.332;18.034;2022-12-10T04:53:59;3.90;;;3.50;;
10823;SDS011;39116;59.332;18.034;2022-12-10T04:56:26;4.27;;;3.87;;
10823;SDS011;39116;59.332;18.034;2022-12-10T04:58:54;5.83;;;4.40;;
10823;SDS011;39116;59.332;18.034;2022-12-10T05:01:20;5.30;;;4.17;;
10823;SDS011;39116;59.332;18.034;2022-12-10T05:03:48;4.70;;;3.70;;
10823;SDS011;39116;59.332;18.034;2022-12-10T05:06:16;4.77;;;4.00;;
10823;SDS011;39116;59.332;18.034;2022-12-10T05:08:43;5.40;;;4.50;;
10823;SDS011;39116;59.332;18.034;2022-12-10T05:11:11;6.50;;;4.10;;
10823;SDS011;39116;59.332;18.034;2022-12-10T05:13:37;5.20;;;4.47;;
10823;SDS011;39116;59.332;18.034;2022-12-10T05:16:04;4.83;;;4.33;;
10823;SDS011;39116;59.332;18.034;2022-12-10T05:18:32;4.63;;;4.17;;
10823;SDS011;39116;59.332;18.034;2022-12-10T05:21:00;5.13;;;4.47;;
10823;SDS011;39116;59.332;18.034;2022-12-10T05:23:27;5.30;;;4.80;;
10823;SDS011;39116;59.332;18.034;2022-12-10T05:25:57;4.90;;;4.40;;
10823;SDS011;39116;59.332;18.034;2022-12-10T05:28:24;4.90;;;3.87;;
10823;SDS011;39116;59.332;18.034;2022-12-10T05:30:51;5.90;;;4.53;;
10823;SDS011;39116;59.332;18.034;2022-12-10T05:33:17;4.63;;;4.13;;
10823;SDS011;39116;59.332;18.034;2022-12-10T05:35:43;7.00;;;4.53;;
10823;SDS011;39116;59.332;18.034;2022-12-10T05:38:18;5.70;;;4.53;;
10823;SDS011;39116;59.332;18.034;2022-12-10T05:40:44;5.70;;;4.37;;
10823;SDS011;39116;59.332;18.034;2022-12-10T05:43:11;7.83;;;5.20;;
10823;SDS011;39116;59.332;18.034;2022-12-10T05:45:37;5.20;;;4.67;;
10823;SDS011;39116;59.332;18.034;2022-12-10T05:48:04;5.30;;;4.40;;
10823;SDS011;39116;59.332;18.034;2022-12-10T05:50:31;5.87;;;4.97;;
10823;SDS011;39116;59.332;18.034;2022-12-10T05:52:58;5.47;;;4.20;;
10823;SDS011;39116;59.332;18.034;2022-12-10T05:55:26;5.13;;;4.63;;
10823;SDS011;39116;59.332;18.034;2022-12-10T05:57:54;6.37;;;5.40;;
10823;SDS011;39116;59.332;18.034;2022-12-10T06:00:20;4.70;;;4.10;;
10823;SDS011;39116;59.332;18.034;2022-12-10T06:02:48;4.80;;;4.30;;
10823;SDS011;39116;59.332;18.034;2022-12-10T06:05:15;7.17;;;5.10;;
10823;SDS011;39116;59.332;18.034;2022-12-10T06:07:41;4.87;;;4.43;;
10823;SDS011;39116;59.332;18.034;2022-12-10T06:10:08;6.00;;;4.77;;
10823;SDS011;39116;59.332;18.034;2022-12-10T06:12:36;5.40;;;4.70;;
10823;SDS011;39116;59.332;18.034;2022-12-10T06:15:03;6.17;;;4.10;;
10823;SDS011;39116;59.332;18.034;2022-12-10T06:17:30;5.70;;;4.50;;
10823;SDS011;39116;59.332;18.034;2022-12-10T06:19:56;6.73;;;4.67;;
10823;SDS011;39116;59.332;18.034;2022-12-10T06:22:23;5.97;;;4.50;;
10823;SDS011;39116;59.332;18.034;2022-12-10T06:24:49;6.23;;;4.67;;
10823;SDS011;39116;59.332;18.034;2022-12-10T06:27:16;5.43;;;4.07;;
10823;SDS011;39116;59.332;18.034;2022-12-10T06:29:45;5.27;;;4.30;;
10823;SDS011;39116;59.332;18.034;2022-12-10T06:32:11;5.73;;;4.50;;
10823;SDS011;39116;59.332;18.034;2022-12-10T06:34:38;5.20;;;4.50;;
10823;SDS011;39116;59.332;18.034;2022-12-10T06:37:04;5.47;;;4.60;;
10823;SDS011;39116;59.332;18.034;2022-12-10T06:39:31;6.53;;;4.70;;
10823;SDS011;39116;59.332;18.034;2022-12-10T06:41:57;6.33;;;4.50;;
10823;SDS011;39116;59.332;18.034;2022-12-10T06:44:24;7.90;;;4.50;;
10823;SDS011;39116;59.332;18.034;2022-12-10T06:46:52;5.67;;;4.00;;
10823;SDS011;39116;59.332;18.034;2022-12-10T06:49:18;6.73;;;4.67;;
10823;SDS011;39116;59.332;18.034;2022-12-10T06:51:45;6.07;;;4.67;;
10823;SDS011;39116;59.332;18.034;2022-12-10T06:54:13;5.57;;;4.43;;
10823;SDS011;39116;59.332;18.034;2022-12-10T06:56:39;5.20;;;3.87;;
10823;SDS011;39116;59.332;18.034;2022-12-10T06:59:06;5.40;;;4.20;;
10823;SDS011;39116;59.332;18.034;2022-12-10T07:01:33;5.53;;;4.23;;
10823;SDS011;39116;59.332;18.034;2022-12-10T07:04:01;4.77;;;4.27;;
10823;SDS011;39116;59.332;18.034;2022-12-10T07:06:30;5.80;;;4.50;;
10823;SDS011;39116;59.332;18.034;2022-12-10T07:08:56;5.67;;;4.60;;
10823;SDS011;39116;59.332;18.034;2022-12-10T07:11:24;5.53;;;4.37;;
10823;SDS011;39116;59.332;18.034;2022-12-10T07:13:51;6.80;;;4.97;;
10823;SDS011;39116;59.332;18.034;2022-12-10T07:16:18;5.83;;;5.13;;
10823;SDS011;39116;59.332;18.034;2022-12-10T07:18:45;6.70;;;5.27;;
10823;SDS011;39116;59.332;18.034;2022-12-10T07:21:16;5.93;;;4.53;;
10823;SDS011;39116;59.332;18.034;2022-12-10T07:23:43;5.67;;;4.57;;
10823;SDS011;39116;59.332;18.034;2022-12-10T07:26:10;7.27;;;5.17;;
10823;SDS011;39116;59.332;18.034;2022-12-10T07:28:36;6.03;;;4.53;;
10823;SDS011;39116;59.332;18.034;2022-12-10T07:31:03;8.93;;;4.53;;
10823;SDS011;39116;59.332;18.034;2022-12-10T07:33:29;6.13;;;4.00;;
10823;SDS011;39116;59.332;18.034;2022-12-10T07:35:56;5.17;;;4.30;;
10823;SDS011;39116;59.332;18.034;2022-12-10T07:38:24;5.20;;;4.37;;
10823;SDS011;39116;59.332;18.034;2022-12-10T07:40:50;5.63;;;4.20;;
10823;SDS011;39116;59.332;18.034;2022-12-10T07:43:17;5.23;;;4.23;;
10823;SDS011;39116;59.332;18.034;2022-12-10T07:45:43;27.97;;;16.63;;
10823;SDS011;39116;59.332;18.034;2022-12-10T07:48:10;5.60;;;4.57;;
10823;SDS011;39116;59.332;18.034;2022-12-10T07:50:37;6.00;;;3.97;;
10823;SDS011;39116;59.332;18.034;2022-12-10T07:53:03;4.47;;;3.83;;
10823;SDS011;39116;59.332;18.034;2022-12-10T07:55:31;4.73;;;4.07;;
10823;SDS011;39116;59.332;18.034;2022-12-10T07:57:57;4.50;;;4.07;;
10823;SDS011;39116;59.332;18.034;2022-12-10T08:00:24;4.83;;;4.13;;
10823;SDS011;39116;59.332;18.034;2022-12-10T08:02:50;6.67;;;4.73;;
10823;SDS011;39116;59.332;18.034;2022-12-10T08:05:17;7.00;;;5.57;;
10823;SDS011;39116;59.332;18.034;2022-12-10T08:07:43;6.37;;;5.00;;
10823;SDS011;39116;59.332;18.034;2022-12-10T08:10:10;5.03;;;4.37;;
10823;SDS011;39116;59.332;18.034;2022-12-10T08:12:38;7.53;;;5.13;;
10823;SDS011;39116;59.332;18.034;2022-12-10T08:15:04;7.07;;;5.43;;
10823;SDS011;39116;59.332;18.034;2022-12-10T08:17:31;7.07;;;5.20;;
10823;SDS011;39116;59.332;18.034;2022-12-10T08:20:01;7.67;;;5.70;;
10823;SDS011;39116;59.332;18.034;2022-12-10T08:22:28;6.33;;;5.03;;
10823;SDS011;39116;59.332;18.034;2022-12-10T08:24:54;6.43;;;4.70;;
10823;SDS011;39116;59.332;18.034;2022-12-10T08:27:21;7.47;;;5.50;;
10823;SDS011;39116;59.332;18.034;2022-12-10T08:29:48;6.50;;;5.17;;
10823;SDS011;39116;59.332;18.034;2022-12-10T08:32:15;7.40;;;5.57;;
10823;SDS011;39116;59.332;18.034;2022-12-10T08:34:41;6.20;;;5.23;;
10823;SDS011;39116;59.332;18.034;2022-12-10T08:37:08;7.43;;;5.17;;
10823;SDS011;39116;59.332;18.034;2022-12-10T08:39:34;6.63;;;5.00;;
10823;SDS011;39116;59.332;18.034;2022-12-10T08:42:01;5.97;;;4.60;;
10823;SDS011;39116;59.332;18.034;2022-12-10T08:44:27;7.00;;;5.37;;
10823;SDS011;39116;59.332;18.034;2022-12-10T08:46:55;5.93;;;4.60;;
10823;SDS011;39116;59.332;18.034;2022-12-10T08:49:22;7.23;;;5.20;;
10823;SDS011;39116;59.332;18.034;2022-12-10T08:51:48;7.03;;;5.20;;
10823;SDS011;39116;59.332;18.034;2022-12-10T08:54:15;6.67;;;4.90;;
10823;SDS011;39116;59.332;18.034;2022-12-10T08:56:41;6.30;;;4.90;;
10823;SDS011;39116;59.332;18.034;2022-12-10T08:59:08;5.97;;;4.73;;
10823;SDS011;39116;59.332;18.034;2022-12-10T09:01:34;7.97;;;5.07;;
10823;SDS011;39116;59.332;18.034;2022-12-10T09:04:02;6.20;;;4.63;;
10823;SDS011;39116;59.332;18.034;2022-12-10T09:06:29;6.67;;;4.73;;
10823;SDS011;39116;59.332;18.034;2022-12-10T09:08:55;7.07;;;5.23;;
10823;SDS011;39116;59.332;18.034;2022-12-10T09:11:23;8.00;;;5.43;;
10823;SDS011;39116;59.332;18.034;2022-12-10T09:13:50;7.10;;;4.80;;
10823;SDS011;39116;59.332;18.034;2022-12-10T09:16:16;5.47;;;4.60;;
10823;SDS011;39116;59.332;18.034;2022-12-10T09:18:43;6.60;;;4.90;;
10823;SDS011;39116;59.332;18.034;2022-12-10T09:21:11;7.80;;;5.07;;
10823;SDS011;39116;59.332;18.034;2022-12-10T09:23:38;8.10;;;4.80;;
10823;SDS011;39116;59.332;18.034;2022-12-10T09:26:05;5.77;;;4.73;;
10823;SDS011;39116;59.332;18.034;2022-12-10T09:28:32;6.83;;;5.30;;
10823;SDS011;39116;59.332;18.034;2022-12-10T09:30:59;6.80;;;4.90;;
10823;SDS011;39116;59.332;18.034;2022-12-10T09:33:26;7.50;;;5.40;;
10823;SDS011;39116;59.332;18.034;2022-12-10T09:35:52;7.60;;;5.47;;
10823;SDS011;39116;59.332;18.034;2022-12-10T09:38:20;8.20;;;5.27;;
10823;SDS011;39116;59.332;18.034;2022-12-10T09:40:48;7.43;;;5.47;;
10823;SDS011;39116;59.332;18.034;2022-12-10T09:43:17;6.90;;;5.53;;
10823;SDS011;39116;59.332;18.034;2022-12-10T09:45:46;8.00;;;5.67;;
10823;SDS011;39116;59.332;18.034;2022-12-10T09:48:16;7.20;;;5.17;;
10823;SDS011;39116;59.332;18.034;2022-12-10T09:50:48;8.53;;;6.10;;
10823;SDS011;39116;59.332;18.034;2022-12-10T09:53:17;10.10;;;6.00;;
10823;SDS011;39116;59.332;18.034;2022-12-10T09:55:46;7.23;;;5.53;;
10823;SDS011;39116;59.332;18.034;2022-12-10T09:58:14;6.67;;;5.23;;
10823;SDS011;39116;59.332;18.034;2022-12-10T10:00:42;7.17;;;5.40;;
10823;SDS011;39116;59.332;18.034;2022-12-10T10:03:11;8.30;;;5.50;;
10823;SDS011;39116;59.332;18.034;2022-12-10T10:05:39;9.57;;;5.57;;
10823;SDS011;39116;59.332;18.034;2022-12-10T10:08:11;8.40;;;5.30;;
10823;SDS011;39116;59.332;18.034;2022-12-10T10:10:39;8.33;;;4.97;;
10823;SDS011;39116;59.332;18.034;2022-12-10T10:13:15;7.53;;;5.10;;
10823;SDS011;39116;59.332;18.034;2022-12-10T10:15:45;6.17;;;4.50;;
10823;SDS011;39116;59.332;18.034;2022-12-10T10:18:13;7.27;;;5.43;;
10823;SDS011;39116;59.332;18.034;2022-12-10T10:20:40;7.20;;;5.73;;
10823;SDS011;39116;59.332;18.034;2022-12-10T10:23:07;7.50;;;5.60;;
10823;SDS011;39116;59.332;18.034;2022-12-10T10:25:34;7.57;;;5.23;;
10823;SDS011;39116;59.332;18.034;2022-12-10T10:28:01;6.50;;;5.10;;
10823;SDS011;39116;59.332;18.034;2022-12-10T10:30:29;6.90;;;5.03;;
10823;SDS011;39116;59.332;18.034;2022-12-10T10:32:56;6.80;;;5.43;;
10823;SDS011;39116;59.332;18.034;2022-12-10T10:35:24;9.80;;;6.90;;
10823;SDS011;39116;59.332;18.034;2022-12-10T10:37:51;8.47;;;6.10;;
10823;SDS011;39116;59.332;18.034;2022-12-10T10:40:22;10.27;;;7.10;;
10823;SDS011;39116;59.332;18.034;2022-12-10T10:42:51;9.83;;;6.30;;
10823;SDS011;39116;59.332;18.034;2022-12-10T10:45:32;6.77;;;5.33;;
10823;SDS011;39116;59.332;18.034;2022-12-10T10:48:03;6.57;;;5.03;;
10823;SDS011;39116;59.332;18.034;2022-12-10T10:50:30;14.10;;;6.83;;
10823;SDS011;39116;59.332;18.034;2022-12-10T10:52:57;5.63;;;5.03;;
10823;SDS011;39116;59.332;18.034;2022-12-10T10:55:30;8.13;;;5.37;;
10823;SDS011;39116;59.332;18.034;2022-12-10T10:57:57;6.93;;;5.03;;
10823;SDS011;39116;59.332;18.034;2022-12-10T11:00:23;5.43;;;4.40;;
10823;SDS011;39116;59.332;18.034;2022-12-10T11:02:51;5.97;;;4.67;;
10823;SDS011;39116;59.332;18.034;2022-12-10T11:05:20;5.17;;;4.30;;
10823;SDS011;39116;59.332;18.034;2022-12-10T11:07:49;7.93;;;5.17;;
10823;SDS011;39116;59.332;18.034;2022-12-10T11:10:23;7.03;;;5.30;;
10823;SDS011;39116;59.332;18.034;2022-12-10T11:12:53;6.77;;;5.00;;
10823;SDS011;39116;59.332;18.034;2022-12-10T11:15:30;7.63;;;5.73;;
10823;SDS011;39116;59.332;18.034;2022-12-10T11:17:59;6.20;;;5.20;;
10823;SDS011;39116;59.332;18.034;2022-12-10T11:20:26;9.90;;;6.10;;
10823;SDS011;39116;59.332;18.034;2022-12-10T11:22:54;6.70;;;5.00;;
10823;SDS011;39116;59.332;18.034;2022-12-10T11:25:24;8.07;;;5.17;;
10823;SDS011;39116;59.332;18.034;2022-12-10T11:27:54;7.87;;;6.10;;
10823;SDS011;39116;59.332;18.034;2022-12-10T11:30:22;8.73;;;5.73;;
10823;SDS011;39116;59.332;18.034;2022-12-10T11:33:18;6.67;;;5.50;;
10823;SDS011;39116;59.332;18.034;2022-12-10T11:35:49;6.63;;;5.90;;
10823;SDS011;39116;59.332;18.034;2022-12-10T11:38:21;7.90;;;5.67;;
10823;SDS011;39116;59.332;18.034;2022-12-10T11:40:48;9.27;;;6.17;;
10823;SDS011;39116;59.332;18.034;2022-12-10T11:43:23;7.33;;;5.00;;
10823;SDS011;39116;59.332;18.034;2022-12-10T11:45:54;7.40;;;5.37;;
10823;SDS011;39116;59.332;18.034;2022-12-10T11:48:29;6.17;;;5.27;;
10823;SDS011;39116;59.332;18.034;2022-12-10T11:50:59;8.97;;;6.17;;
10823;SDS011;39116;59.332;18.034;2022-12-10T11:53:32;10.47;;;6.93;;
10823;SDS011;39116;59.332;18.034;2022-12-10T11:56:03;10.80;;;5.67;;
10823;SDS011;39116;59.332;18.034;2022-12-10T11:58:37;6.87;;;5.10;;
10823;SDS011;39116;59.332;18.034;2022-12-10T12:01:07;7.93;;;5.43;;
10823;SDS011;39116;59.332;18.034;2022-12-10T12:06:35;6.77;;;4.67;;
10823;SDS011;39116;59.332;18.034;2022-12-10T12:09:09;6.47;;;4.70;;
10823;SDS011;39116;59.332;18.034;2022-12-10T12:11:46;5.53;;;4.53;;
10823;SDS011;39116;59.332;18.034;2022-12-10T12:14:18;5.83;;;4.30;;
10823;SDS011;39116;59.332;18.034;2022-12-10T12:16:47;7.37;;;4.53;;
10823;SDS011;39116;59.332;18.034;2022-12-10T12:19:16;6.57;;;4.30;;
10823;SDS011;39116;59.332;18.034;2022-12-10T12:21:46;7.77;;;4.90;;
10823;SDS011;39116;59.332;18.034;2022-12-10T12:24:15;9.13;;;4.43;;
10823;SDS011;39116;59.332;18.034;2022-12-10T12:26:45;6.37;;;4.60;;
10823;SDS011;39116;59.332;18.034;2022-12-10T12:29:13;6.30;;;4.07;;
10823;SDS011;39116;59.332;18.034;2022-12-10T12:31:42;6.13;;;4.27;;
10823;SDS011;39116;59.332;18.034;2022-12-10T12:34:13;5.43;;;4.20;;
10823;SDS011;39116;59.332;18.034;2022-12-10T12:36:43;6.10;;;4.40;;
10823;SDS011;39116;59.332;18.034;2022-12-10T12:39:13;7.13;;;5.50;;
10823;SDS011;39116;59.332;18.034;2022-12-10T12:41:41;7.13;;;4.90;;
10823;SDS011;39116;59.332;18.034;2022-12-10T12:44:12;6.07;;;4.80;;
10823;SDS011;39116;59.332;18.034;2022-12-10T12:46:40;5.40;;;4.50;;
10823;SDS011;39116;59.332;18.034;2022-12-10T12:49:10;6.77;;;4.87;;
10823;SDS011;39116;59.332;18.034;2022-12-10T12:51:38;7.80;;;5.20;;
10823;SDS011;39116;59.332;18.034;2022-12-10T12:54:07;6.73;;;4.93;;
10823;SDS011;39116;59.332;18.034;2022-12-10T12:56:39;5.70;;;4.43;;
10823;SDS011;39116;59.332;18.034;2022-12-10T12:59:10;10.73;;;5.60;;
10823;SDS011;39116;59.332;18.034;2022-12-10T13:01:38;7.90;;;5.20;;
10823;SDS011;39116;59.332;18.034;2022-12-10T13:04:06;6.90;;;5.17;;
10823;SDS011;39116;59.332;18.034;2022-12-10T13:06:34;6.40;;;4.60;;
10823;SDS011;39116;59.332;18.034;2022-12-10T13:09:22;15.57;;;8.30;;
10823;SDS011;39116;59.332;18.034;2022-12-10T13:14:33;6.43;;;4.63;;
10823;SDS011;39116;59.332;18.034;2022-12-10T13:17:05;7.73;;;5.20;;
10823;SDS011;39116;59.332;18.034;2022-12-10T13:19:33;6.37;;;4.67;;
10823;SDS011;39116;59.332;18.034;2022-12-10T13:22:02;6.63;;;4.67;;
10823;SDS011;39116;59.332;18.034;2022-12-10T13:27:28;6.90;;;4.90;;
10823;SDS011;39116;59.332;18.034;2022-12-10T13:30:00;7.20;;;4.70;;
10823;SDS011;39116;59.332;18.034;2022-12-10T13:32:41;5.57;;;4.30;;
10823;SDS011;39116;59.332;18.034;2022-12-10T13:37:54;5.47;;;4.00;;
10823;SDS011;39116;59.332;18.034;2022-12-10T13:40:36;5.97;;;4.67;;
10823;SDS011;39116;59.332;18.034;2022-12-10T13:43:24;6.20;;;4.50;;
10823;SDS011;39116;59.332;18.034;2022-12-10T13:46:23;7.30;;;3.80;;
10823;SDS011;39116;59.332;18.034;2022-12-10T13:48:50;7.17;;;4.33;;
10823;SDS011;39116;59.332;18.034;2022-12-10T13:51:21;5.87;;;3.93;;
10823;SDS011;39116;59.332;18.034;2022-12-10T13:53:57;5.43;;;4.27;;
10823;SDS011;39116;59.332;18.034;2022-12-10T13:56:29;7.83;;;4.80;;
10823;SDS011;39116;59.332;18.034;2022-12-10T13:58:58;6.27;;;4.77;;
10823;SDS011;39116;59.332;18.034;2022-12-10T14:01:33;7.27;;;4.80;;
10823;SDS011;39116;59.332;18.034;2022-12-10T14:06:48;5.77;;;4.47;;
10823;SDS011;39116;59.332;18.034;2022-12-10T14:09:17;4.93;;;4.00;;
10823;SDS011;39116;59.332;18.034;2022-12-10T14:11:45;5.87;;;4.40;;
10823;SDS011;39116;59.332;18.034;2022-12-10T14:14:13;6.10;;;3.83;;
10823;SDS011;39116;59.332;18.034;2022-12-10T14:16:43;4.87;;;4.10;;
10823;SDS011;39116;59.332;18.034;2022-12-10T14:19:12;7.20;;;4.50;;
10823;SDS011;39116;59.332;18.034;2022-12-10T14:21:39;5.60;;;4.10;;
10823;SDS011;39116;59.332;18.034;2022-12-10T14:26:54;6.73;;;4.40;;
10823;SDS011;39116;59.332;18.034;2022-12-10T14:29:22;6.87;;;4.50;;
10823;SDS011;39116;59.332;18.034;2022-12-10T14:31:50;8.30;;;5.00;;
10823;SDS011;39116;59.332;18.034;2022-12-10T14:34:17;7.07;;;4.53;;
10823;SDS011;39116;59.332;18.034;2022-12-10T14:36:44;8.67;;;5.70;;
10823;SDS011;39116;59.332;18.034;2022-12-10T14:39:12;4.77;;;4.20;;
10823;SDS011;39116;59.332;18.034;2022-12-10T14:41:40;6.47;;;4.63;;
10823;SDS011;39116;59.332;18.034;2022-12-10T14:44:08;5.63;;;4.37;;
10823;SDS011;39116;59.332;18.034;2022-12-10T14:46:37;9.63;;;6.47;;
10823;SDS011;39116;59.332;18.034;2022-12-10T14:49:06;6.60;;;4.80;;
10823;SDS011;39116;59.332;18.034;2022-12-10T14:51:36;5.33;;;3.93;;
10823;SDS011;39116;59.332;18.034;2022-12-10T14:54:03;8.13;;;4.67;;
10823;SDS011;39116;59.332;18.034;2022-12-10T14:56:30;7.23;;;4.67;;
10823;SDS011;39116;59.332;18.034;2022-12-10T14:59:01;5.93;;;4.30;;